createdAt,value
2017-07-23T00:00:08.497Z,0
2017-07-23T00:01:09.915Z,0
2017-07-23T00:02:11.335Z,0
2017-07-23T00:03:12.752Z,0
2017-07-23T00:04:14.189Z,0
2017-07-23T00:05:15.611Z,0
2017-07-23T00:06:17.032Z,0
2017-07-23T00:07:18.451Z,0
2017-07-23T00:08:19.871Z,0
2017-07-23T00:09:21.293Z,0
2017-07-23T00:10:22.707Z,0
2017-07-23T00:11:24.126Z,0
2017-07-23T00:12:25.549Z,0
2017-07-23T00:13:26.968Z,0
2017-07-23T00:14:28.391Z,0
2017-07-23T00:15:29.812Z,0
2017-07-23T00:16:31.233Z,0
2017-07-23T00:17:32.652Z,0
2017-07-23T00:18:34.087Z,0
2017-07-23T00:19:35.507Z,0
2017-07-23T00:20:36.924Z,0
2017-07-23T00:21:38.344Z,0
2017-07-23T00:22:39.790Z,0
2017-07-23T00:23:41.210Z,0
2017-07-23T00:24:42.674Z,0
2017-07-23T00:25:44.092Z,0
2017-07-23T00:26:45.515Z,0
2017-07-23T00:27:46.934Z,0
2017-07-23T00:28:48.356Z,0
2017-07-23T00:29:49.839Z,0
2017-07-23T00:30:51.261Z,0
2017-07-23T00:31:52.683Z,0
2017-07-23T00:32:54.104Z,0
2017-07-23T00:33:55.529Z,0
2017-07-23T00:34:56.950Z,0
2017-07-23T00:35:58.369Z,0
2017-07-23T00:36:59.790Z,0
2017-07-23T00:38:01.203Z,0
2017-07-23T00:39:02.628Z,0
2017-07-23T00:40:04.048Z,0
2017-07-23T00:41:05.540Z,0
2017-07-23T00:42:06.962Z,0
2017-07-23T00:43:08.377Z,0
2017-07-23T00:44:09.813Z,0
2017-07-23T00:45:11.233Z,0
2017-07-23T00:46:12.652Z,0
2017-07-23T00:47:14.083Z,0
2017-07-23T00:48:15.505Z,0
2017-07-23T00:49:16.985Z,0
2017-07-23T00:50:18.405Z,0
2017-07-23T00:51:19.821Z,0
2017-07-23T00:52:21.245Z,0
2017-07-23T00:53:22.665Z,0
2017-07-23T00:54:24.128Z,0
2017-07-23T00:55:25.553Z,0
2017-07-23T00:56:26.971Z,0
2017-07-23T00:57:28.387Z,0
2017-07-23T00:58:29.808Z,0
2017-07-23T00:59:31.230Z,0
2017-07-23T01:00:32.656Z,0
2017-07-23T01:01:34.074Z,0
2017-07-23T01:02:35.528Z,0
2017-07-23T01:03:36.950Z,0
2017-07-23T01:04:38.375Z,0
2017-07-23T01:05:39.988Z,0
2017-07-23T01:06:41.411Z,0
2017-07-23T01:07:42.833Z,0
2017-07-23T01:08:44.254Z,0
2017-07-23T01:09:45.679Z,0
2017-07-23T01:10:47.098Z,0
2017-07-23T01:11:48.518Z,0
2017-07-23T01:12:49.941Z,0
2017-07-23T01:13:51.363Z,0
2017-07-23T01:14:52.786Z,0
2017-07-23T01:15:54.350Z,0
2017-07-23T01:16:55.768Z,0
2017-07-23T01:17:57.196Z,0
2017-07-23T01:18:58.616Z,0
2017-07-23T01:20:00.037Z,0
2017-07-23T01:21:01.475Z,0
2017-07-23T01:22:02.894Z,0
2017-07-23T01:23:04.318Z,0
2017-07-23T01:24:05.739Z,0
2017-07-23T01:25:07.170Z,0
2017-07-23T01:26:08.590Z,0
2017-07-23T01:27:10.009Z,0
2017-07-23T01:28:11.415Z,0
2017-07-23T01:29:13.688Z,0
2017-07-23T01:30:15.100Z,0
2017-07-23T01:31:16.509Z,0
2017-07-23T01:32:18.646Z,0
2017-07-23T01:33:20.054Z,0
2017-07-23T01:34:21.472Z,0
2017-07-23T01:35:22.890Z,0
2017-07-23T01:36:24.307Z,0
2017-07-23T01:37:25.722Z,0
2017-07-23T01:38:27.143Z,0
2017-07-23T01:39:28.563Z,0
2017-07-23T01:40:29.987Z,0
2017-07-23T01:41:31.406Z,0
2017-07-23T01:42:32.825Z,0
2017-07-23T01:43:34.346Z,0
2017-07-23T01:44:35.875Z,0
2017-07-23T01:45:37.299Z,0
2017-07-23T01:46:38.821Z,0
2017-07-23T01:47:40.242Z,0
2017-07-23T01:48:41.661Z,0
2017-07-23T01:49:43.079Z,0
2017-07-23T01:50:44.494Z,0
2017-07-23T01:51:45.919Z,0
2017-07-23T01:52:47.336Z,0
2017-07-23T01:53:48.760Z,0
2017-07-23T01:54:50.202Z,0
2017-07-23T01:55:51.620Z,0
2017-07-23T01:56:53.138Z,0
2017-07-23T01:57:54.558Z,0
2017-07-23T01:58:55.979Z,0
2017-07-23T01:59:57.404Z,0
2017-07-23T02:00:58.823Z,0
2017-07-23T02:02:00.349Z,0
2017-07-23T02:03:01.773Z,0
2017-07-23T02:04:03.203Z,0
2017-07-23T02:05:04.622Z,0
2017-07-23T02:06:06.043Z,0
2017-07-23T02:07:07.462Z,0
2017-07-23T02:08:08.881Z,0
2017-07-23T02:09:10.309Z,0
2017-07-23T02:10:11.724Z,0
2017-07-23T02:11:13.147Z,0
2017-07-23T02:12:14.565Z,0
2017-07-23T02:13:15.979Z,0
2017-07-23T02:14:17.502Z,0
2017-07-23T02:15:18.929Z,0
2017-07-23T02:16:20.358Z,0
2017-07-23T02:17:21.777Z,0
2017-07-23T02:18:23.196Z,0
2017-07-23T02:19:24.622Z,0
2017-07-23T02:20:26.035Z,0
2017-07-23T02:21:27.526Z,0
2017-07-23T02:22:28.947Z,0
2017-07-23T02:23:30.363Z,0
2017-07-23T02:24:31.841Z,0
2017-07-23T02:25:33.278Z,0
2017-07-23T02:26:34.695Z,0
2017-07-23T02:27:36.141Z,0
2017-07-23T02:28:37.564Z,0
2017-07-23T02:29:38.985Z,0
2017-07-23T02:30:40.404Z,0
2017-07-23T02:31:41.825Z,0
2017-07-23T02:32:43.244Z,0
2017-07-23T02:33:44.662Z,0
2017-07-23T02:34:46.080Z,0
2017-07-23T02:35:47.507Z,0
2017-07-23T02:36:48.932Z,0
2017-07-23T02:37:50.355Z,0
2017-07-23T02:38:51.778Z,0
2017-07-23T02:39:53.201Z,0
2017-07-23T02:40:54.621Z,0
2017-07-23T02:41:56.052Z,0
2017-07-23T02:42:57.489Z,0
2017-07-23T02:43:59.070Z,0
2017-07-23T02:45:00.494Z,0
2017-07-23T02:46:01.910Z,0
2017-07-23T02:47:03.332Z,0
2017-07-23T02:48:04.761Z,0
2017-07-23T02:49:06.197Z,0
2017-07-23T02:50:07.631Z,0
2017-07-23T02:51:09.048Z,0
2017-07-23T02:52:10.471Z,0
2017-07-23T02:53:11.893Z,0
2017-07-23T02:54:13.314Z,0
2017-07-23T02:55:14.741Z,0
2017-07-23T02:56:16.161Z,0
2017-07-23T02:57:17.580Z,0
2017-07-23T02:58:19.001Z,0
2017-07-23T02:59:20.422Z,0
2017-07-23T03:00:21.841Z,0
2017-07-23T03:01:23.262Z,0
2017-07-23T03:02:24.687Z,0
2017-07-23T03:03:26.109Z,0
2017-07-23T03:04:27.530Z,0
2017-07-23T03:05:28.954Z,0
2017-07-23T03:06:30.380Z,0
2017-07-23T03:07:31.800Z,0
2017-07-23T03:08:33.216Z,0
2017-07-23T03:09:34.638Z,0
2017-07-23T03:10:36.069Z,0
2017-07-23T03:11:37.532Z,0
2017-07-23T03:12:38.972Z,0
2017-07-23T03:13:40.390Z,0
2017-07-23T03:14:41.815Z,0
2017-07-23T03:15:43.231Z,4
2017-07-23T03:16:44.647Z,4
2017-07-23T03:17:46.077Z,4
2017-07-23T03:18:47.666Z,4
2017-07-23T03:19:49.085Z,4
2017-07-23T03:20:50.504Z,4
2017-07-23T03:21:51.923Z,4
2017-07-23T03:22:53.339Z,4
2017-07-23T03:23:54.760Z,4
2017-07-23T03:24:56.183Z,4
2017-07-23T03:25:57.605Z,4
2017-07-23T03:26:59.030Z,4
2017-07-23T03:28:00.449Z,4
2017-07-23T03:29:01.869Z,4
2017-07-23T03:30:03.288Z,4
2017-07-23T03:31:04.719Z,8
2017-07-23T03:32:06.134Z,8
2017-07-23T03:33:07.565Z,8
2017-07-23T03:34:08.982Z,8
2017-07-23T03:35:10.401Z,12
2017-07-23T03:36:11.844Z,12
2017-07-23T03:37:13.263Z,12
2017-07-23T03:38:14.677Z,12
2017-07-23T03:39:16.100Z,16
2017-07-23T03:40:17.523Z,12
2017-07-23T03:41:18.944Z,12
2017-07-23T03:42:20.366Z,16
2017-07-23T03:43:21.784Z,20
2017-07-23T03:44:23.205Z,24
2017-07-23T03:45:24.621Z,28
2017-07-23T03:46:26.042Z,32
2017-07-23T03:47:27.474Z,32
2017-07-23T03:48:28.902Z,40
2017-07-23T03:49:30.343Z,44
2017-07-23T03:50:31.771Z,44
2017-07-23T03:51:33.193Z,40
2017-07-23T03:52:34.612Z,44
2017-07-23T03:53:36.040Z,48
2017-07-23T03:54:37.467Z,48
2017-07-23T03:55:38.949Z,52
2017-07-23T03:56:40.377Z,56
2017-07-23T03:57:41.814Z,68
2017-07-23T03:58:43.242Z,72
2017-07-23T03:59:44.662Z,76
2017-07-23T04:00:46.082Z,76
2017-07-23T04:01:47.504Z,84
2017-07-23T04:02:48.926Z,88
2017-07-23T04:03:50.354Z,92
2017-07-23T04:04:51.779Z,108
2017-07-23T04:05:53.202Z,124
2017-07-23T04:06:54.622Z,120
2017-07-23T04:07:56.060Z,120
2017-07-23T04:08:57.484Z,120
2017-07-23T04:09:58.915Z,120
2017-07-23T04:11:00.336Z,132
2017-07-23T04:12:01.760Z,144
2017-07-23T04:13:03.226Z,148
2017-07-23T04:14:04.647Z,176
2017-07-23T04:15:06.087Z,220
2017-07-23T04:16:07.519Z,276
2017-07-23T04:17:08.943Z,312
2017-07-23T04:18:10.370Z,308
2017-07-23T04:19:11.791Z,296
2017-07-23T04:20:13.225Z,304
2017-07-23T04:21:14.643Z,300
2017-07-23T04:22:16.065Z,276
2017-07-23T04:23:17.489Z,240
2017-07-23T04:24:18.910Z,232
2017-07-23T04:25:20.338Z,256
2017-07-23T04:26:21.801Z,288
2017-07-23T04:27:23.223Z,296
2017-07-23T04:28:24.642Z,264
2017-07-23T04:29:26.068Z,272
2017-07-23T04:30:27.489Z,284
2017-07-23T04:31:28.917Z,256
2017-07-23T04:32:30.341Z,212
2017-07-23T04:33:31.766Z,192
2017-07-23T04:34:33.200Z,216
2017-07-23T04:35:34.618Z,216
2017-07-23T04:36:36.046Z,168
2017-07-23T04:37:37.471Z,156
2017-07-23T04:38:38.893Z,184
2017-07-23T04:39:40.315Z,256
2017-07-23T04:40:41.736Z,316
2017-07-23T04:41:43.163Z,420
2017-07-23T04:42:44.592Z,536
2017-07-23T04:43:46.017Z,572
2017-07-23T04:44:47.549Z,620
2017-07-23T04:45:49.061Z,664
2017-07-23T04:46:50.489Z,712
2017-07-23T04:47:51.903Z,708
2017-07-23T04:48:53.328Z,704
2017-07-23T04:49:54.751Z,740
2017-07-23T04:50:56.175Z,828
2017-07-23T04:51:57.619Z,884
2017-07-23T04:52:59.029Z,892
2017-07-23T04:54:00.449Z,900
2017-07-23T04:55:01.912Z,908
2017-07-23T04:56:03.333Z,908
2017-07-23T04:57:04.758Z,908
2017-07-23T04:58:06.183Z,916
2017-07-23T04:59:07.615Z,936
2017-07-23T05:00:09.036Z,972
2017-07-23T05:01:10.454Z,1028
2017-07-23T05:02:11.877Z,1040
2017-07-23T05:03:13.302Z,1124
2017-07-23T05:04:14.785Z,1244
2017-07-23T05:05:16.211Z,1388
2017-07-23T05:06:17.639Z,1508
2017-07-23T05:07:19.066Z,1676
2017-07-23T05:08:20.608Z,1644
2017-07-23T05:09:22.037Z,1624
2017-07-23T05:10:23.465Z,1640
2017-07-23T05:11:24.891Z,1648
2017-07-23T05:12:26.324Z,1644
2017-07-23T05:13:27.760Z,1628
2017-07-23T05:14:29.185Z,1644
2017-07-23T05:15:30.611Z,1460
2017-07-23T05:16:32.034Z,1176
2017-07-23T05:17:33.454Z,1104
2017-07-23T05:18:34.876Z,1276
2017-07-23T05:19:36.319Z,1384
2017-07-23T05:20:37.746Z,1128
2017-07-23T05:21:39.180Z,1128
2017-07-23T05:22:40.613Z,1124
2017-07-23T05:23:42.036Z,832
2017-07-23T05:24:43.463Z,1160
2017-07-23T05:25:44.890Z,784
2017-07-23T05:26:46.310Z,744
2017-07-23T05:27:47.748Z,728
2017-07-23T05:28:49.178Z,1288
2017-07-23T05:29:50.666Z,1368
2017-07-23T05:30:52.092Z,1288
2017-07-23T05:31:53.519Z,2068
2017-07-23T05:32:54.945Z,2740
2017-07-23T05:33:56.382Z,3932
2017-07-23T05:34:57.825Z,5512
2017-07-23T05:35:59.253Z,4500
2017-07-23T05:37:00.680Z,4080
2017-07-23T05:38:02.106Z,3004
2017-07-23T05:39:03.527Z,1816
2017-07-23T05:40:04.947Z,1448
2017-07-23T05:41:06.372Z,1748
2017-07-23T05:42:07.806Z,1528
2017-07-23T05:43:09.233Z,1332
2017-07-23T05:44:10.658Z,844
2017-07-23T05:45:12.093Z,716
2017-07-23T05:46:13.515Z,868
2017-07-23T05:47:14.941Z,1028
2017-07-23T05:48:16.366Z,1084
2017-07-23T05:49:17.796Z,1140
2017-07-23T05:50:19.223Z,900
2017-07-23T05:51:20.654Z,1004
2017-07-23T05:52:22.097Z,1460
2017-07-23T05:53:23.533Z,1572
2017-07-23T05:54:24.957Z,1724
2017-07-23T05:55:26.406Z,1716
2017-07-23T05:56:27.842Z,1964
2017-07-23T05:57:29.275Z,1412
2017-07-23T05:58:30.703Z,1460
2017-07-23T05:59:32.126Z,2988
2017-07-23T06:00:33.555Z,3064
2017-07-23T06:01:34.972Z,3992
2017-07-23T06:02:36.405Z,4260
2017-07-23T06:03:37.829Z,3004
2017-07-23T06:04:39.286Z,2128
2017-07-23T06:05:40.706Z,1644
2017-07-23T06:06:42.134Z,1588
2017-07-23T06:07:43.560Z,1580
2017-07-23T06:08:44.980Z,2000
2017-07-23T06:09:46.407Z,2108
2017-07-23T06:10:47.883Z,2148
2017-07-23T06:11:49.306Z,2512
2017-07-23T06:12:50.728Z,2832
2017-07-23T06:13:52.155Z,2884
2017-07-23T06:14:53.577Z,2856
2017-07-23T06:15:55.009Z,3060
2017-07-23T06:16:56.431Z,3236
2017-07-23T06:17:57.855Z,3380
2017-07-23T06:18:59.305Z,2700
2017-07-23T06:20:00.710Z,2560
2017-07-23T06:21:02.152Z,2588
2017-07-23T06:22:03.581Z,2524
2017-07-23T06:23:05.001Z,2548
2017-07-23T06:24:06.435Z,2724
2017-07-23T06:25:07.862Z,2916
2017-07-23T06:26:09.287Z,2912
2017-07-23T06:27:10.711Z,2672
2017-07-23T06:28:12.130Z,2524
2017-07-23T06:29:13.643Z,2520
2017-07-23T06:30:15.065Z,2540
2017-07-23T06:31:16.492Z,2696
2017-07-23T06:32:17.925Z,2644
2017-07-23T06:33:19.342Z,2584
2017-07-23T06:34:20.767Z,2792
2017-07-23T06:35:22.216Z,3188
2017-07-23T06:36:23.654Z,3624
2017-07-23T06:37:25.122Z,4344
2017-07-23T06:38:26.563Z,4676
2017-07-23T06:39:28.001Z,4324
2017-07-23T06:40:29.435Z,3884
2017-07-23T06:41:30.876Z,4196
2017-07-23T06:42:32.310Z,4292
2017-07-23T06:43:33.742Z,4440
2017-07-23T06:44:35.200Z,4960
2017-07-23T06:45:36.639Z,5484
2017-07-23T06:46:38.096Z,5356
2017-07-23T06:47:39.535Z,5464
2017-07-23T06:48:40.973Z,6320
2017-07-23T06:49:42.444Z,4232
2017-07-23T06:50:43.886Z,4964
2017-07-23T06:51:45.315Z,4908
2017-07-23T06:52:46.745Z,4400
2017-07-23T06:53:48.195Z,3120
2017-07-23T06:54:49.624Z,1560
2017-07-23T06:55:51.061Z,1020
2017-07-23T06:56:52.483Z,652
2017-07-23T06:57:53.916Z,604
2017-07-23T06:58:55.348Z,836
2017-07-23T06:59:56.796Z,2164
2017-07-23T07:00:58.223Z,2468
2017-07-23T07:01:59.667Z,2480
2017-07-23T07:03:01.104Z,2648
2017-07-23T07:04:02.535Z,2444
2017-07-23T07:05:03.979Z,2008
2017-07-23T07:06:05.417Z,1572
2017-07-23T07:07:06.850Z,1724
2017-07-23T07:08:08.284Z,2360
2017-07-23T07:09:09.709Z,2696
2017-07-23T07:10:11.133Z,3128
2017-07-23T07:11:12.575Z,3548
2017-07-23T07:12:14.001Z,3656
2017-07-23T07:13:15.432Z,3140
2017-07-23T07:14:16.862Z,3076
2017-07-23T07:15:18.293Z,3452
2017-07-23T07:16:19.724Z,4684
2017-07-23T07:17:21.180Z,7156
2017-07-23T07:18:22.629Z,51520
2017-07-23T07:19:24.060Z,47328
2017-07-23T07:20:25.568Z,47680
2017-07-23T07:21:27.002Z,42112
2017-07-23T07:22:28.435Z,52288
2017-07-23T07:23:29.873Z,51488
2017-07-23T07:24:31.306Z,53856
2017-07-23T07:25:32.739Z,54944
2017-07-23T07:26:34.177Z,56416
2017-07-23T07:27:35.657Z,56928
2017-07-23T07:28:37.089Z,16640
2017-07-23T07:29:38.524Z,8200
2017-07-23T07:30:39.996Z,6720
2017-07-23T07:31:41.424Z,6016
2017-07-23T07:32:42.851Z,6880
2017-07-23T07:33:44.292Z,18492
2017-07-23T07:34:45.736Z,7520
2017-07-23T07:35:47.166Z,6880
2017-07-23T07:36:48.599Z,6196
2017-07-23T07:37:50.034Z,6652
2017-07-23T07:38:51.548Z,7152
2017-07-23T07:39:53.086Z,7476
2017-07-23T07:40:54.619Z,7576
2017-07-23T07:41:56.061Z,9184
2017-07-23T07:42:57.503Z,8032
2017-07-23T07:43:58.941Z,9948
2017-07-23T07:45:00.377Z,8368
2017-07-23T07:46:01.811Z,13012
2017-07-23T07:47:03.242Z,57856
2017-07-23T07:48:04.684Z,58240
2017-07-23T07:49:06.115Z,39008
2017-07-23T07:50:07.580Z,59744
2017-07-23T07:51:09.020Z,59936
2017-07-23T07:52:10.459Z,48320
2017-07-23T07:53:11.920Z,16544
2017-07-23T07:54:13.352Z,59136
2017-07-23T07:55:14.808Z,13128
2017-07-23T07:56:16.285Z,57184
2017-07-23T07:57:17.716Z,10584
2017-07-23T07:58:19.154Z,56320
2017-07-23T07:59:20.597Z,59968
2017-07-23T08:00:22.028Z,59424
2017-07-23T08:01:23.468Z,63104
2017-07-23T08:02:24.895Z,7760
2017-07-23T08:03:26.344Z,50048
2017-07-23T08:04:27.783Z,9212
2017-07-23T08:05:29.291Z,53312
2017-07-23T08:06:30.730Z,9588
2017-07-23T08:07:32.163Z,54496
2017-07-23T08:08:33.633Z,55680
2017-07-23T08:09:35.067Z,55488
2017-07-23T08:10:36.503Z,18720
2017-07-23T08:11:37.946Z,59680
2017-07-23T08:12:39.381Z,52480
2017-07-23T08:13:40.848Z,36672
2017-07-23T08:14:42.287Z,64480
2017-07-23T08:15:43.719Z,54272
2017-07-23T08:16:45.150Z,20704
2017-07-23T08:17:46.588Z,14304
2017-07-23T08:18:48.059Z,32576
2017-07-23T08:19:49.522Z,10560
2017-07-23T08:20:50.939Z,9568
2017-07-23T08:21:52.375Z,60768
2017-07-23T08:22:53.811Z,68160
2017-07-23T08:23:55.373Z,18740
2017-07-23T08:24:56.805Z,66112
2017-07-23T08:25:58.310Z,69248
2017-07-23T08:26:59.748Z,67840
2017-07-23T08:28:01.193Z,55680
2017-07-23T08:29:02.726Z,7840
2017-07-23T08:30:04.174Z,66144
2017-07-23T08:31:05.696Z,71136
2017-07-23T08:32:07.111Z,11372
2017-07-23T08:33:08.556Z,8096
2017-07-23T08:34:09.994Z,36704
2017-07-23T08:35:11.508Z,69024
2017-07-23T08:36:12.949Z,34560
2017-07-23T08:37:14.419Z,69056
2017-07-23T08:38:15.855Z,68192
2017-07-23T08:39:17.295Z,65536
2017-07-23T08:40:18.743Z,67520
2017-07-23T08:41:20.214Z,68160
2017-07-23T08:42:21.648Z,69888
2017-07-23T08:43:23.106Z,27136
2017-07-23T08:44:24.571Z,67328
2017-07-23T08:45:26.121Z,69760
2017-07-23T08:46:27.557Z,60544
2017-07-23T08:47:28.997Z,68064
2017-07-23T08:48:30.444Z,69696
2017-07-23T08:49:31.900Z,70656
2017-07-23T08:50:33.347Z,72736
2017-07-23T08:51:34.784Z,75456
2017-07-23T08:52:36.239Z,72768
2017-07-23T08:53:37.685Z,74304
2017-07-23T08:54:39.157Z,73152
2017-07-23T08:55:40.637Z,70848
2017-07-23T08:56:42.080Z,70880
2017-07-23T08:57:43.601Z,70848
2017-07-23T08:58:45.043Z,71072
2017-07-23T08:59:46.552Z,71040
2017-07-23T09:00:47.980Z,62624
2017-07-23T09:01:49.445Z,72480
2017-07-23T09:02:50.883Z,64672
2017-07-23T09:03:52.379Z,74912
2017-07-23T09:04:53.817Z,72928
2017-07-23T09:05:55.254Z,72256
2017-07-23T09:06:56.687Z,73280
2017-07-23T09:07:58.119Z,8324
2017-07-23T09:08:59.789Z,8216
2017-07-23T09:10:01.217Z,76576
2017-07-23T09:11:02.665Z,6796
2017-07-23T09:12:04.102Z,6328
2017-07-23T09:13:05.536Z,8688
2017-07-23T09:14:06.977Z,9164
2017-07-23T09:15:08.403Z,5852
2017-07-23T09:16:09.836Z,6876
2017-07-23T09:17:11.287Z,55232
2017-07-23T09:18:12.721Z,17088
2017-07-23T09:19:14.153Z,26560
2017-07-23T09:20:15.675Z,72000
2017-07-23T09:21:17.113Z,77856
2017-07-23T09:22:18.555Z,77056
2017-07-23T09:23:19.989Z,39712
2017-07-23T09:24:21.421Z,9504
2017-07-23T09:25:22.864Z,13224
2017-07-23T09:26:24.308Z,84320
2017-07-23T09:27:25.758Z,15948
2017-07-23T09:28:27.204Z,67776
2017-07-23T09:29:28.642Z,70976
2017-07-23T09:30:30.087Z,60128
2017-07-23T09:31:31.536Z,40800
2017-07-23T09:32:32.986Z,72128
2017-07-23T09:33:34.430Z,65504
2017-07-23T09:34:35.859Z,56096
2017-07-23T09:35:37.377Z,70624
2017-07-23T09:36:38.817Z,68672
2017-07-23T09:37:40.257Z,73472
2017-07-23T09:38:41.821Z,69184
2017-07-23T09:39:43.262Z,57920
2017-07-23T09:40:44.708Z,59008
2017-07-23T09:41:46.145Z,32224
2017-07-23T09:42:47.585Z,38784
2017-07-23T09:43:49.032Z,16136
2017-07-23T09:44:50.477Z,14248
2017-07-23T09:45:51.911Z,12788
2017-07-23T09:46:53.364Z,51648
2017-07-23T09:47:54.805Z,13164
2017-07-23T09:48:56.337Z,24896
2017-07-23T09:49:57.853Z,31232
2017-07-23T09:50:59.300Z,39008
2017-07-23T09:52:00.742Z,45024
2017-07-23T09:53:02.179Z,17856
2017-07-23T09:54:03.718Z,18468
2017-07-23T09:55:05.176Z,21088
2017-07-23T09:56:06.612Z,24064
2017-07-23T09:57:08.050Z,26912
2017-07-23T09:58:09.488Z,12660
2017-07-23T09:59:10.928Z,41376
2017-07-23T10:00:12.387Z,30400
2017-07-23T10:01:13.823Z,21440
2017-07-23T10:02:15.263Z,20416
2017-07-23T10:03:16.701Z,33184
2017-07-23T10:04:18.142Z,26304
2017-07-23T10:05:19.665Z,30880
2017-07-23T10:06:21.101Z,53280
2017-07-23T10:07:22.543Z,58432
2017-07-23T10:08:23.986Z,28160
2017-07-23T10:09:25.421Z,25632
2017-07-23T10:10:26.901Z,14632
2017-07-23T10:11:28.337Z,10012
2017-07-23T10:12:29.771Z,8264
2017-07-23T10:13:31.347Z,7592
2017-07-23T10:14:32.805Z,6748
2017-07-23T10:15:34.314Z,7196
2017-07-23T10:16:35.931Z,7496
2017-07-23T10:17:37.393Z,8448
2017-07-23T10:18:38.824Z,13612
2017-07-23T10:19:40.632Z,36128
2017-07-23T10:20:42.635Z,68960
2017-07-23T10:21:44.499Z,67264
2017-07-23T10:22:46.681Z,69184
2017-07-23T10:23:48.243Z,75776
2017-07-23T10:24:49.917Z,75968
2017-07-23T10:25:51.509Z,74848
2017-07-23T10:26:52.943Z,74144
2017-07-23T10:27:54.419Z,73760
2017-07-23T10:28:56.185Z,71968
2017-07-23T10:29:57.772Z,71744
2017-07-23T10:30:59.390Z,72896
2017-07-23T10:32:00.845Z,73056
2017-07-23T10:33:02.317Z,73152
2017-07-23T10:34:03.835Z,72768
2017-07-23T10:35:05.373Z,72480
2017-07-23T10:36:06.874Z,71904
2017-07-23T10:37:08.433Z,72416
2017-07-23T10:38:09.868Z,72544
2017-07-23T10:39:11.299Z,48960
2017-07-23T10:40:12.736Z,73024
2017-07-23T10:41:14.170Z,73568
2017-07-23T10:42:15.697Z,74624
2017-07-23T10:43:17.134Z,74240
2017-07-23T10:44:18.568Z,73600
2017-07-23T10:45:20.038Z,74144
2017-07-23T10:46:21.477Z,71648
2017-07-23T10:47:22.912Z,69248
2017-07-23T10:48:24.348Z,73152
2017-07-23T10:49:25.918Z,73056
2017-07-23T10:50:27.339Z,8748
2017-07-23T10:51:28.778Z,68288
2017-07-23T10:52:30.222Z,15428
2017-07-23T10:53:31.656Z,24224
2017-07-23T10:54:33.090Z,80576
2017-07-23T10:55:34.522Z,38848
2017-07-23T10:56:35.961Z,35936
2017-07-23T10:57:37.402Z,52000
2017-07-23T10:58:38.866Z,76320
2017-07-23T10:59:40.317Z,12956
2017-07-23T11:00:41.731Z,59104
2017-07-23T11:01:43.254Z,7492
2017-07-23T11:02:44.681Z,6884
2017-07-23T11:03:46.113Z,6876
2017-07-23T11:04:47.546Z,9480
2017-07-23T11:05:48.988Z,53024
2017-07-23T11:06:50.499Z,76736
2017-07-23T11:07:51.931Z,74240
2017-07-23T11:08:53.361Z,74240
2017-07-23T11:09:54.795Z,57088
2017-07-23T11:10:56.231Z,72960
2017-07-23T11:11:57.669Z,72000
2017-07-23T11:12:59.100Z,73824
2017-07-23T11:14:00.533Z,72992
2017-07-23T11:15:02.035Z,71040
2017-07-23T11:16:03.474Z,69216
2017-07-23T11:17:04.908Z,51552
2017-07-23T11:18:06.343Z,69312
2017-07-23T11:19:07.777Z,70368
2017-07-23T11:20:09.216Z,8212
2017-07-23T11:21:10.649Z,5508
2017-07-23T11:22:12.085Z,6680
2017-07-23T11:23:13.518Z,20356
2017-07-23T11:24:14.952Z,12392
2017-07-23T11:25:16.384Z,6036
2017-07-23T11:26:17.821Z,17840
2017-07-23T11:27:19.260Z,7068
2017-07-23T11:28:20.690Z,6144
2017-07-23T11:29:22.119Z,7292
2017-07-23T11:30:23.552Z,75072
2017-07-23T11:31:24.983Z,12284
2017-07-23T11:32:26.464Z,60800
2017-07-23T11:33:27.901Z,66752
2017-07-23T11:34:29.333Z,63200
2017-07-23T11:35:30.770Z,62688
2017-07-23T11:36:32.202Z,61216
2017-07-23T11:37:33.673Z,59392
2017-07-23T11:38:35.103Z,5292
2017-07-23T11:39:36.546Z,4856
2017-07-23T11:40:37.972Z,5124
2017-07-23T11:41:39.403Z,5392
2017-07-23T11:42:40.833Z,6616
2017-07-23T11:43:42.263Z,63904
2017-07-23T11:44:43.694Z,63200
2017-07-23T11:45:45.132Z,60256
2017-07-23T11:46:46.574Z,59104
2017-07-23T11:47:48.011Z,58368
2017-07-23T11:48:49.450Z,7764
2017-07-23T11:49:50.885Z,8500
2017-07-23T11:50:52.318Z,7388
2017-07-23T11:51:53.834Z,7216
2017-07-23T11:52:55.261Z,8912
2017-07-23T11:53:56.732Z,8400
2017-07-23T11:54:58.166Z,7628
2017-07-23T11:55:59.599Z,7080
2017-07-23T11:57:01.027Z,6964
2017-07-23T11:58:02.459Z,8548
2017-07-23T11:59:03.907Z,10256
2017-07-23T12:00:05.451Z,9976
2017-07-23T12:01:06.884Z,8824
2017-07-23T12:02:08.319Z,7964
2017-07-23T12:03:09.816Z,7492
2017-07-23T12:04:11.295Z,6912
2017-07-23T12:05:12.724Z,6476
2017-07-23T12:06:14.154Z,6056
2017-07-23T12:07:15.583Z,11624
2017-07-23T12:08:17.051Z,10732
2017-07-23T12:09:18.514Z,12132
2017-07-23T12:10:19.948Z,11080
2017-07-23T12:11:21.390Z,10056
2017-07-23T12:12:22.828Z,9608
2017-07-23T12:13:24.256Z,9664
2017-07-23T12:14:25.687Z,10096
2017-07-23T12:15:27.167Z,9404
2017-07-23T12:16:28.597Z,7636
2017-07-23T12:17:30.044Z,8120
2017-07-23T12:18:31.472Z,8316
2017-07-23T12:19:32.907Z,8312
2017-07-23T12:20:34.429Z,8392
2017-07-23T12:21:35.863Z,8740
2017-07-23T12:22:37.326Z,8868
2017-07-23T12:23:38.760Z,8720
2017-07-23T12:24:40.190Z,8492
2017-07-23T12:25:41.624Z,8608
2017-07-23T12:26:43.069Z,8800
2017-07-23T12:27:44.531Z,9320
2017-07-23T12:28:46.000Z,9096
2017-07-23T12:29:47.395Z,8464
2017-07-23T12:30:48.828Z,7956
2017-07-23T12:31:50.257Z,7732
2017-07-23T12:32:51.858Z,7896
2017-07-23T12:33:53.292Z,8196
2017-07-23T12:34:54.805Z,8052
2017-07-23T12:35:56.227Z,7768
2017-07-23T12:36:57.674Z,8040
2017-07-23T12:37:59.117Z,8176
2017-07-23T12:39:00.645Z,8228
2017-07-23T12:40:02.079Z,8604
2017-07-23T12:41:03.513Z,9072
2017-07-23T12:42:04.976Z,9664
2017-07-23T12:43:06.407Z,9428
2017-07-23T12:44:08.032Z,8624
2017-07-23T12:45:09.520Z,7640
2017-07-23T12:46:10.959Z,7516
2017-07-23T12:47:12.391Z,7876
2017-07-23T12:48:13.814Z,8768
2017-07-23T12:49:15.245Z,8492
2017-07-23T12:50:16.678Z,8460
2017-07-23T12:51:18.113Z,7928
2017-07-23T12:52:19.547Z,7348
2017-07-23T12:53:20.983Z,6724
2017-07-23T12:54:22.409Z,6304
2017-07-23T12:55:23.834Z,6124
2017-07-23T12:56:25.265Z,6116
2017-07-23T12:57:26.694Z,6076
2017-07-23T12:58:28.127Z,5876
2017-07-23T12:59:29.555Z,5764
2017-07-23T13:00:30.987Z,6192
2017-07-23T13:01:32.434Z,6592
2017-07-23T13:02:33.865Z,6372
2017-07-23T13:03:35.294Z,6052
2017-07-23T13:04:36.727Z,5728
2017-07-23T13:05:38.162Z,5732
2017-07-23T13:06:39.667Z,6012
2017-07-23T13:07:41.096Z,6220
2017-07-23T13:08:42.529Z,6392
2017-07-23T13:09:43.958Z,6680
2017-07-23T13:10:45.389Z,7292
2017-07-23T13:11:46.876Z,8044
2017-07-23T13:12:48.304Z,7852
2017-07-23T13:13:49.760Z,8416
2017-07-23T13:14:51.165Z,7504
2017-07-23T13:15:52.600Z,7504
2017-07-23T13:16:54.028Z,6984
2017-07-23T13:17:55.493Z,6184
2017-07-23T13:18:56.923Z,5760
2017-07-23T13:19:58.358Z,5412
2017-07-23T13:21:00.350Z,4740
2017-07-23T13:22:01.766Z,4608
2017-07-23T13:23:03.195Z,4576
2017-07-23T13:24:04.625Z,4184
2017-07-23T13:25:06.055Z,3644
2017-07-23T13:26:07.488Z,3172
2017-07-23T13:27:08.941Z,2924
2017-07-23T13:28:10.468Z,2760
2017-07-23T13:29:11.971Z,2700
2017-07-23T13:30:13.400Z,2764
2017-07-23T13:31:15.136Z,2580
2017-07-23T13:32:16.639Z,2884
2017-07-23T13:33:18.149Z,3328
2017-07-23T13:34:20.508Z,3748
2017-07-23T13:35:21.942Z,4288
2017-07-23T13:36:23.454Z,4876
2017-07-23T13:37:25.043Z,4484
2017-07-23T13:38:26.547Z,4268
2017-07-23T13:39:28.055Z,3692
2017-07-23T13:40:29.509Z,3280
2017-07-23T13:41:31.014Z,3424
2017-07-23T13:42:32.665Z,3616
2017-07-23T13:43:34.193Z,3288
2017-07-23T13:44:33.448Z,3396
2017-07-23T13:45:34.879Z,3972
2017-07-23T13:46:36.308Z,4476
2017-07-23T13:47:37.740Z,4388
2017-07-23T13:48:39.170Z,4140
2017-07-23T13:49:40.599Z,3836
2017-07-23T13:50:42.030Z,3680
2017-07-23T13:51:43.463Z,3772
2017-07-23T13:52:44.895Z,4020
2017-07-23T13:53:46.323Z,4368
2017-07-23T13:54:47.757Z,5004
2017-07-23T13:55:49.186Z,6188